Franklin Furnace, Pennsylvania
Current Conditions -  °F | °C
As of 12:53 AM on Thursday 23 Oct 2014 (Local Time) from KHGR Reporting Station
Scattered Clouds Scattered Clouds  
Wind Chill: 50°   Ceiling: Unl
Heat Index: 50°   Visibility: 10mi
Dew Point: 40°   Wind: 15mph
Humidity: 68%   Direction: 330°NNW
Pressure: 29.97"   Gusts: NA
Location:  39.9438°N, 77.6827°W
Report Text: KHGR 230453Z AUTO 33013KT 10SM SCT030 10/04 A2997 RMK AO2 SLP160 T01000044 401390089 TSNO
Loading
Personal Weather Stations






























Interactive Weather Map
Tropical Storm Tracking
New forecast layout! Learn more

10-Day Weather Forecast

Advertisements
Track Severe Weather on mobile